sensor_id;sensor_type;location;lat;lon;timestamp;P1;durP1;ratioP1;P2;durP2;ratioP2
2546;SDS011;1283;47.982;7.834;2023-03-01T00:01:02;30.30;;;15.55;;
2546;SDS011;1283;47.982;7.834;2023-03-01T00:03:30;34.10;;;15.55;;
2546;SDS011;1283;47.982;7.834;2023-03-01T00:05:56;29.45;;;15.02;;
2546;SDS011;1283;47.982;7.834;2023-03-01T00:08:23;30.90;;;15.07;;
2546;SDS011;1283;47.982;7.834;2023-03-01T00:10:49;30.45;;;15.65;;
2546;SDS011;1283;47.982;7.834;2023-03-01T00:13:26;28.35;;;15.10;;
2546;SDS011;1283;47.982;7.834;2023-03-01T00:15:52;35.67;;;16.58;;
2546;SDS011;1283;47.982;7.834;2023-03-01T00:18:20;30.58;;;15.75;;
2546;SDS011;1283;47.982;7.834;2023-03-01T00:20:49;29.90;;;15.85;;
2546;SDS011;1283;47.982;7.834;2023-03-01T00:23:15;27.70;;;14.98;;
2546;SDS011;1283;47.982;7.834;2023-03-01T00:25:42;29.08;;;15.23;;
2546;SDS011;1283;47.982;7.834;2023-03-01T00:28:08;34.75;;;15.52;;
2546;SDS011;1283;47.982;7.834;2023-03-01T00:30:35;29.35;;;15.23;;
2546;SDS011;1283;47.982;7.834;2023-03-01T00:33:02;33.53;;;14.95;;
2546;SDS011;1283;47.982;7.834;2023-03-01T00:35:31;29.95;;;14.85;;
2546;SDS011;1283;47.982;7.834;2023-03-01T00:37:58;31.42;;;15.95;;
2546;SDS011;1283;47.982;7.834;2023-03-01T00:40:25;30.17;;;14.73;;
2546;SDS011;1283;47.982;7.834;2023-03-01T00:42:51;29.33;;;14.98;;
2546;SDS011;1283;47.982;7.834;2023-03-01T00:45:18;27.65;;;14.77;;
2546;SDS011;1283;47.982;7.834;2023-03-01T00:47:44;29.42;;;14.07;;
2546;SDS011;1283;47.982;7.834;2023-03-01T00:50:11;31.50;;;16.35;;
2546;SDS011;1283;47.982;7.834;2023-03-01T00:52:39;29.90;;;15.15;;
2546;SDS011;1283;47.982;7.834;2023-03-01T00:55:06;30.90;;;15.10;;
2546;SDS011;1283;47.982;7.834;2023-03-01T00:57:33;26.50;;;14.90;;
2546;SDS011;1283;47.982;7.834;2023-03-01T01:00:00;32.58;;;14.57;;
2546;SDS011;1283;47.982;7.834;2023-03-01T01:02:26;32.72;;;16.02;;
2546;SDS011;1283;47.982;7.834;2023-03-01T01:04:53;30.40;;;14.90;;
2546;SDS011;1283;47.982;7.834;2023-03-01T01:07:19;29.13;;;14.70;;
2546;SDS011;1283;47.982;7.834;2023-03-01T01:09:47;32.47;;;14.48;;
2546;SDS011;1283;47.982;7.834;2023-03-01T01:12:13;32.85;;;14.07;;
2546;SDS011;1283;47.982;7.834;2023-03-01T01:14:40;28.38;;;13.77;;
2546;SDS011;1283;47.982;7.834;2023-03-01T01:17:06;27.63;;;13.88;;
2546;SDS011;1283;47.982;7.834;2023-03-01T01:19:33;29.27;;;14.38;;
2546;SDS011;1283;47.982;7.834;2023-03-01T01:21:59;25.75;;;13.52;;
2546;SDS011;1283;47.982;7.834;2023-03-01T01:24:26;29.42;;;14.38;;
2546;SDS011;1283;47.982;7.834;2023-03-01T01:26:53;28.67;;;13.88;;
2546;SDS011;1283;47.982;7.834;2023-03-01T01:29:20;29.80;;;14.85;;
2546;SDS011;1283;47.982;7.834;2023-03-01T01:31:46;27.80;;;13.73;;
2546;SDS011;1283;47.982;7.834;2023-03-01T01:34:13;29.67;;;14.45;;
2546;SDS011;1283;47.982;7.834;2023-03-01T01:36:41;28.65;;;14.80;;
2546;SDS011;1283;47.982;7.834;2023-03-01T01:39:08;29.67;;;14.57;;
2546;SDS011;1283;47.982;7.834;2023-03-01T01:41:38;33.10;;;16.27;;
2546;SDS011;1283;47.982;7.834;2023-03-01T01:44:11;28.02;;;14.52;;
2546;SDS011;1283;47.982;7.834;2023-03-01T01:46:39;30.50;;;14.45;;
2546;SDS011;1283;47.982;7.834;2023-03-01T01:49:07;29.73;;;14.45;;
2546;SDS011;1283;47.982;7.834;2023-03-01T01:54:11;25.92;;;12.77;;
2546;SDS011;1283;47.982;7.834;2023-03-01T01:56:40;27.27;;;14.13;;
2546;SDS011;1283;47.982;7.834;2023-03-01T01:59:08;27.13;;;14.90;;
2546;SDS011;1283;47.982;7.834;2023-03-01T02:01:36;28.23;;;14.05;;
2546;SDS011;1283;47.982;7.834;2023-03-01T02:04:03;31.63;;;14.27;;
2546;SDS011;1283;47.982;7.834;2023-03-01T02:06:32;34.58;;;15.07;;
2546;SDS011;1283;47.982;7.834;2023-03-01T02:09:02;28.45;;;13.95;;
2546;SDS011;1283;47.982;7.834;2023-03-01T02:11:31;33.40;;;15.27;;
2546;SDS011;1283;47.982;7.834;2023-03-01T02:13:58;27.33;;;14.20;;
2546;SDS011;1283;47.982;7.834;2023-03-01T02:16:26;32.33;;;14.85;;
2546;SDS011;1283;47.982;7.834;2023-03-01T02:18:54;31.88;;;13.75;;
2546;SDS011;1283;47.982;7.834;2023-03-01T02:21:25;31.02;;;14.90;;
2546;SDS011;1283;47.982;7.834;2023-03-01T02:23:58;31.55;;;14.30;;
2546;SDS011;1283;47.982;7.834;2023-03-01T02:26:27;30.70;;;15.38;;
2546;SDS011;1283;47.982;7.834;2023-03-01T02:28:57;29.88;;;14.15;;
2546;SDS011;1283;47.982;7.834;2023-03-01T02:31:24;31.25;;;13.23;;
2546;SDS011;1283;47.982;7.834;2023-03-01T02:34:10;31.85;;;15.43;;
2546;SDS011;1283;47.982;7.834;2023-03-01T02:36:39;29.63;;;14.45;;
2546;SDS011;1283;47.982;7.834;2023-03-01T02:39:06;30.75;;;14.00;;
2546;SDS011;1283;47.982;7.834;2023-03-01T02:41:39;29.88;;;14.40;;
2546;SDS011;1283;47.982;7.834;2023-03-01T02:44:09;27.02;;;13.52;;
2546;SDS011;1283;47.982;7.834;2023-03-01T02:46:41;28.63;;;14.38;;
2546;SDS011;1283;47.982;7.834;2023-03-01T02:49:15;31.50;;;14.85;;
2546;SDS011;1283;47.982;7.834;2023-03-01T02:51:46;31.70;;;15.05;;
2546;SDS011;1283;47.982;7.834;2023-03-01T02:54:21;31.00;;;14.38;;
2546;SDS011;1283;47.982;7.834;2023-03-01T02:56:51;29.45;;;13.73;;
2546;SDS011;1283;47.982;7.834;2023-03-01T02:59:19;30.05;;;14.38;;
2546;SDS011;1283;47.982;7.834;2023-03-01T03:01:47;31.38;;;14.63;;
2546;SDS011;1283;47.982;7.834;2023-03-01T03:04:14;29.33;;;14.00;;
2546;SDS011;1283;47.982;7.834;2023-03-01T03:06:42;27.83;;;14.10;;
2546;SDS011;1283;47.982;7.834;2023-03-01T03:09:09;32.13;;;15.77;;
2546;SDS011;1283;47.982;7.834;2023-03-01T03:11:36;33.45;;;14.63;;
2546;SDS011;1283;47.982;7.834;2023-03-01T03:14:04;38.15;;;15.90;;
2546;SDS011;1283;47.982;7.834;2023-03-01T03:16:32;34.05;;;16.38;;
2546;SDS011;1283;47.982;7.834;2023-03-01T03:18:58;30.83;;;15.43;;
2546;SDS011;1283;47.982;7.834;2023-03-01T03:21:30;31.17;;;14.98;;
2546;SDS011;1283;47.982;7.834;2023-03-01T03:23:56;29.38;;;14.27;;
2546;SDS011;1283;47.982;7.834;2023-03-01T03:26:23;33.03;;;14.82;;
2546;SDS011;1283;47.982;7.834;2023-03-01T03:28:49;30.40;;;14.77;;
2546;SDS011;1283;47.982;7.834;2023-03-01T03:31:16;36.13;;;16.10;;
2546;SDS011;1283;47.982;7.834;2023-03-01T03:33:44;37.75;;;14.68;;
2546;SDS011;1283;47.982;7.834;2023-03-01T03:36:14;28.77;;;14.65;;
2546;SDS011;1283;47.982;7.834;2023-03-01T03:38:43;30.92;;;14.60;;
2546;SDS011;1283;47.982;7.834;2023-03-01T03:41:09;30.67;;;14.85;;
2546;SDS011;1283;47.982;7.834;2023-03-01T03:43:37;33.72;;;14.57;;
2546;SDS011;1283;47.982;7.834;2023-03-01T03:46:04;34.92;;;15.40;;
2546;SDS011;1283;47.982;7.834;2023-03-01T03:48:32;32.42;;;15.25;;
2546;SDS011;1283;47.982;7.834;2023-03-01T03:51:00;29.88;;;14.45;;
2546;SDS011;1283;47.982;7.834;2023-03-01T03:53:30;33.13;;;15.10;;
2546;SDS011;1283;47.982;7.834;2023-03-01T03:55:56;33.63;;;15.15;;
2546;SDS011;1283;47.982;7.834;2023-03-01T03:58:23;26.60;;;14.40;;
2546;SDS011;1283;47.982;7.834;2023-03-01T04:00:51;29.50;;;14.18;;
2546;SDS011;1283;47.982;7.834;2023-03-01T04:03:20;29.70;;;15.00;;
2546;SDS011;1283;47.982;7.834;2023-03-01T04:05:47;29.15;;;14.35;;
2546;SDS011;1283;47.982;7.834;2023-03-01T04:08:16;30.35;;;15.05;;
2546;SDS011;1283;47.982;7.834;2023-03-01T04:10:45;31.40;;;14.27;;
2546;SDS011;1283;47.982;7.834;2023-03-01T04:13:15;28.83;;;13.98;;
2546;SDS011;1283;47.982;7.834;2023-03-01T04:15:44;33.85;;;15.52;;
2546;SDS011;1283;47.982;7.834;2023-03-01T04:18:10;32.33;;;15.68;;
2546;SDS011;1283;47.982;7.834;2023-03-01T04:20:38;31.77;;;15.05;;
2546;SDS011;1283;47.982;7.834;2023-03-01T04:23:05;34.33;;;14.90;;
2546;SDS011;1283;47.982;7.834;2023-03-01T04:25:39;31.95;;;15.20;;
2546;SDS011;1283;47.982;7.834;2023-03-01T04:28:07;30.83;;;14.18;;
2546;SDS011;1283;47.982;7.834;2023-03-01T04:30:34;30.48;;;14.55;;
2546;SDS011;1283;47.982;7.834;2023-03-01T04:33:01;32.75;;;14.65;;
2546;SDS011;1283;47.982;7.834;2023-03-01T04:35:29;28.90;;;14.07;;
2546;SDS011;1283;47.982;7.834;2023-03-01T04:37:56;34.15;;;15.30;;
2546;SDS011;1283;47.982;7.834;2023-03-01T04:40:22;31.63;;;14.27;;
2546;SDS011;1283;47.982;7.834;2023-03-01T04:42:50;33.63;;;15.50;;
2546;SDS011;1283;47.982;7.834;2023-03-01T04:45:16;30.40;;;15.18;;
2546;SDS011;1283;47.982;7.834;2023-03-01T04:47:44;30.70;;;15.00;;
2546;SDS011;1283;47.982;7.834;2023-03-01T04:50:12;30.17;;;15.20;;
2546;SDS011;1283;47.982;7.834;2023-03-01T04:52:39;31.38;;;14.32;;
2546;SDS011;1283;47.982;7.834;2023-03-01T04:55:06;29.98;;;14.75;;
2546;SDS011;1283;47.982;7.834;2023-03-01T04:57:34;33.05;;;14.52;;
2546;SDS011;1283;47.982;7.834;2023-03-01T05:00:02;30.83;;;15.52;;
2546;SDS011;1283;47.982;7.834;2023-03-01T05:02:44;31.17;;;15.25;;
2546;SDS011;1283;47.982;7.834;2023-03-01T05:05:13;30.67;;;14.98;;
2546;SDS011;1283;47.982;7.834;2023-03-01T05:07:39;30.85;;;15.00;;
2546;SDS011;1283;47.982;7.834;2023-03-01T05:10:06;29.95;;;15.27;;
2546;SDS011;1283;47.982;7.834;2023-03-01T05:12:33;29.02;;;14.93;;
2546;SDS011;1283;47.982;7.834;2023-03-01T05:14:59;36.90;;;15.38;;
2546;SDS011;1283;47.982;7.834;2023-03-01T05:17:27;29.30;;;15.00;;
2546;SDS011;1283;47.982;7.834;2023-03-01T05:19:53;36.10;;;15.32;;
2546;SDS011;1283;47.982;7.834;2023-03-01T05:22:20;33.78;;;15.75;;
2546;SDS011;1283;47.982;7.834;2023-03-01T05:24:48;31.83;;;15.52;;
2546;SDS011;1283;47.982;7.834;2023-03-01T05:27:14;30.17;;;14.82;;
2546;SDS011;1283;47.982;7.834;2023-03-01T05:29:40;32.10;;;15.40;;
2546;SDS011;1283;47.982;7.834;2023-03-01T05:32:07;35.17;;;15.70;;
2546;SDS011;1283;47.982;7.834;2023-03-01T05:34:35;35.95;;;16.08;;
2546;SDS011;1283;47.982;7.834;2023-03-01T05:37:02;31.67;;;15.07;;
2546;SDS011;1283;47.982;7.834;2023-03-01T05:39:29;32.65;;;16.08;;
2546;SDS011;1283;47.982;7.834;2023-03-01T05:41:57;36.78;;;15.35;;
2546;SDS011;1283;47.982;7.834;2023-03-01T05:44:25;32.90;;;15.05;;
2546;SDS011;1283;47.982;7.834;2023-03-01T05:46:51;35.30;;;17.05;;
2546;SDS011;1283;47.982;7.834;2023-03-01T05:49:18;33.53;;;14.75;;
2546;SDS011;1283;47.982;7.834;2023-03-01T05:51:48;34.97;;;16.00;;
2546;SDS011;1283;47.982;7.834;2023-03-01T05:54:16;34.65;;;17.05;;
2546;SDS011;1283;47.982;7.834;2023-03-01T05:56:42;37.35;;;16.33;;
2546;SDS011;1283;47.982;7.834;2023-03-01T05:59:09;32.90;;;15.60;;
2546;SDS011;1283;47.982;7.834;2023-03-01T06:01:36;35.70;;;15.13;;
2546;SDS011;1283;47.982;7.834;2023-03-01T06:04:03;32.28;;;14.93;;
2546;SDS011;1283;47.982;7.834;2023-03-01T06:06:33;33.40;;;14.30;;
2546;SDS011;1283;47.982;7.834;2023-03-01T06:09:01;31.23;;;15.55;;
2546;SDS011;1283;47.982;7.834;2023-03-01T06:11:27;35.33;;;15.82;;
2546;SDS011;1283;47.982;7.834;2023-03-01T06:13:54;32.47;;;16.17;;
2546;SDS011;1283;47.982;7.834;2023-03-01T06:16:20;35.97;;;16.30;;
2546;SDS011;1283;47.982;7.834;2023-03-01T06:18:46;32.80;;;15.13;;
2546;SDS011;1283;47.982;7.834;2023-03-01T06:21:13;31.80;;;16.48;;
2546;SDS011;1283;47.982;7.834;2023-03-01T06:23:39;31.23;;;15.73;;
2546;SDS011;1283;47.982;7.834;2023-03-01T06:26:07;34.35;;;16.08;;
2546;SDS011;1283;47.982;7.834;2023-03-01T06:28:34;37.03;;;16.85;;
2546;SDS011;1283;47.982;7.834;2023-03-01T06:31:01;35.22;;;16.08;;
2546;SDS011;1283;47.982;7.834;2023-03-01T06:33:27;38.33;;;15.95;;
2546;SDS011;1283;47.982;7.834;2023-03-01T06:35:54;38.65;;;15.73;;
2546;SDS011;1283;47.982;7.834;2023-03-01T06:38:21;31.67;;;16.70;;
2546;SDS011;1283;47.982;7.834;2023-03-01T06:40:51;32.97;;;16.55;;
2546;SDS011;1283;47.982;7.834;2023-03-01T06:43:19;39.30;;;16.52;;
2546;SDS011;1283;47.982;7.834;2023-03-01T06:45:45;34.53;;;16.77;;
2546;SDS011;1283;47.982;7.834;2023-03-01T06:48:12;37.40;;;16.08;;
2546;SDS011;1283;47.982;7.834;2023-03-01T06:50:38;38.08;;;17.38;;
2546;SDS011;1283;47.982;7.834;2023-03-01T06:53:05;39.30;;;16.70;;
2546;SDS011;1283;47.982;7.834;2023-03-01T06:55:32;34.15;;;15.73;;
2546;SDS011;1283;47.982;7.834;2023-03-01T06:57:59;36.33;;;15.73;;
2546;SDS011;1283;47.982;7.834;2023-03-01T07:00:27;33.92;;;16.90;;
2546;SDS011;1283;47.982;7.834;2023-03-01T07:02:54;32.95;;;14.93;;
2546;SDS011;1283;47.982;7.834;2023-03-01T07:05:22;35.40;;;15.45;;
2546;SDS011;1283;47.982;7.834;2023-03-01T07:07:48;31.15;;;15.57;;
2546;SDS011;1283;47.982;7.834;2023-03-01T07:10:15;29.27;;;15.63;;
2546;SDS011;1283;47.982;7.834;2023-03-01T07:12:42;30.60;;;15.00;;
2546;SDS011;1283;47.982;7.834;2023-03-01T07:15:08;32.53;;;15.35;;
2546;SDS011;1283;47.982;7.834;2023-03-01T07:17:37;31.35;;;15.98;;
2546;SDS011;1283;47.982;7.834;2023-03-01T07:20:04;36.50;;;15.35;;
2546;SDS011;1283;47.982;7.834;2023-03-01T07:22:31;37.00;;;16.63;;
2546;SDS011;1283;47.982;7.834;2023-03-01T07:24:57;36.45;;;17.70;;
2546;SDS011;1283;47.982;7.834;2023-03-01T07:27:24;33.67;;;15.90;;
2546;SDS011;1283;47.982;7.834;2023-03-01T07:29:50;35.00;;;15.48;;
2546;SDS011;1283;47.982;7.834;2023-03-01T07:32:17;38.58;;;16.77;;
2546;SDS011;1283;47.982;7.834;2023-03-01T07:34:50;40.40;;;17.70;;
2546;SDS011;1283;47.982;7.834;2023-03-01T07:37:17;30.25;;;15.50;;
2546;SDS011;1283;47.982;7.834;2023-03-01T07:39:43;35.83;;;17.52;;
2546;SDS011;1283;47.982;7.834;2023-03-01T07:42:10;34.75;;;15.27;;
2546;SDS011;1283;47.982;7.834;2023-03-01T07:44:36;32.42;;;15.77;;
2546;SDS011;1283;47.982;7.834;2023-03-01T07:47:03;32.35;;;14.82;;
2546;SDS011;1283;47.982;7.834;2023-03-01T07:49:29;36.47;;;16.60;;
2546;SDS011;1283;47.982;7.834;2023-03-01T07:51:57;36.80;;;16.20;;
2546;SDS011;1283;47.982;7.834;2023-03-01T07:54:23;32.58;;;15.13;;
2546;SDS011;1283;47.982;7.834;2023-03-01T07:56:51;32.38;;;16.63;;
2546;SDS011;1283;47.982;7.834;2023-03-01T07:59:19;31.15;;;15.35;;
2546;SDS011;1283;47.982;7.834;2023-03-01T08:01:46;42.03;;;17.58;;
2546;SDS011;1283;47.982;7.834;2023-03-01T08:04:12;40.78;;;17.58;;
2546;SDS011;1283;47.982;7.834;2023-03-01T08:06:38;31.15;;;16.13;;
2546;SDS011;1283;47.982;7.834;2023-03-01T08:09:06;30.38;;;15.10;;
2546;SDS011;1283;47.982;7.834;2023-03-01T08:11:33;33.22;;;15.77;;
2546;SDS011;1283;47.982;7.834;2023-03-01T08:14:00;40.40;;;16.50;;
2546;SDS011;1283;47.982;7.834;2023-03-01T08:16:26;34.97;;;16.40;;
2546;SDS011;1283;47.982;7.834;2023-03-01T08:18:52;33.95;;;15.15;;
2546;SDS011;1283;47.982;7.834;2023-03-01T08:21:21;35.33;;;17.05;;
2546;SDS011;1283;47.982;7.834;2023-03-01T08:23:48;32.72;;;15.07;;
2546;SDS011;1283;47.982;7.834;2023-03-01T08:26:16;27.80;;;14.88;;
2546;SDS011;1283;47.982;7.834;2023-03-01T08:28:44;33.25;;;16.30;;
2546;SDS011;1283;47.982;7.834;2023-03-01T08:31:15;33.03;;;15.73;;
2546;SDS011;1283;47.982;7.834;2023-03-01T08:33:43;32.92;;;16.23;;
2546;SDS011;1283;47.982;7.834;2023-03-01T08:36:15;31.98;;;15.80;;
2546;SDS011;1283;47.982;7.834;2023-03-01T08:38:42;38.97;;;16.75;;
2546;SDS011;1283;47.982;7.834;2023-03-01T08:41:08;36.20;;;17.15;;
2546;SDS011;1283;47.982;7.834;2023-03-01T08:43:36;36.78;;;16.98;;
2546;SDS011;1283;47.982;7.834;2023-03-01T08:46:03;37.45;;;16.77;;
2546;SDS011;1283;47.982;7.834;2023-03-01T08:48:29;36.55;;;16.10;;
2546;SDS011;1283;47.982;7.834;2023-03-01T08:50:56;34.28;;;15.63;;
2546;SDS011;1283;47.982;7.834;2023-03-01T08:53:22;34.65;;;16.15;;
2546;SDS011;1283;47.982;7.834;2023-03-01T08:55:49;29.10;;;14.65;;
2546;SDS011;1283;47.982;7.834;2023-03-01T08:58:15;31.58;;;16.02;;
2546;SDS011;1283;47.982;7.834;2023-03-01T09:00:43;35.63;;;15.38;;
2546;SDS011;1283;47.982;7.834;2023-03-01T09:03:09;34.92;;;15.80;;
2546;SDS011;1283;47.982;7.834;2023-03-01T09:05:36;32.30;;;15.65;;
2546;SDS011;1283;47.982;7.834;2023-03-01T09:08:02;33.92;;;16.00;;
2546;SDS011;1283;47.982;7.834;2023-03-01T09:10:29;36.15;;;16.20;;
2546;SDS011;1283;47.982;7.834;2023-03-01T09:12:56;31.33;;;15.27;;
2546;SDS011;1283;47.982;7.834;2023-03-01T09:15:22;42.65;;;15.85;;
2546;SDS011;1283;47.982;7.834;2023-03-01T09:17:50;33.10;;;14.82;;
2546;SDS011;1283;47.982;7.834;2023-03-01T09:20:17;45.13;;;16.55;;
2546;SDS011;1283;47.982;7.834;2023-03-01T09:22:43;38.10;;;16.77;;
2546;SDS011;1283;47.982;7.834;2023-03-01T09:25:10;31.13;;;16.60;;
2546;SDS011;1283;47.982;7.834;2023-03-01T09:27:36;32.60;;;16.20;;
2546;SDS011;1283;47.982;7.834;2023-03-01T09:30:03;28.85;;;15.18;;
2546;SDS011;1283;47.982;7.834;2023-03-01T09:32:30;29.33;;;15.77;;
2546;SDS011;1283;47.982;7.834;2023-03-01T09:34:58;33.25;;;15.05;;
2546;SDS011;1283;47.982;7.834;2023-03-01T09:37:29;32.10;;;15.13;;
2546;SDS011;1283;47.982;7.834;2023-03-01T09:39:56;35.03;;;15.65;;
2546;SDS011;1283;47.982;7.834;2023-03-01T09:42:23;29.70;;;15.18;;
2546;SDS011;1283;47.982;7.834;2023-03-01T09:44:51;32.60;;;15.93;;
2546;SDS011;1283;47.982;7.834;2023-03-01T09:47:18;31.83;;;16.27;;
2546;SDS011;1283;47.982;7.834;2023-03-01T09:49:47;34.47;;;16.15;;
2546;SDS011;1283;47.982;7.834;2023-03-01T09:52:23;34.25;;;16.98;;
2546;SDS011;1283;47.982;7.834;2023-03-01T09:54:54;33.67;;;15.75;;
2546;SDS011;1283;47.982;7.834;2023-03-01T09:57:27;30.10;;;15.45;;
2546;SDS011;1283;47.982;7.834;2023-03-01T10:00:00;34.03;;;15.20;;
2546;SDS011;1283;47.982;7.834;2023-03-01T10:02:37;32.88;;;15.80;;
2546;SDS011;1283;47.982;7.834;2023-03-01T10:05:09;35.05;;;15.88;;
2546;SDS011;1283;47.982;7.834;2023-03-01T10:07:43;33.25;;;16.42;;
2546;SDS011;1283;47.982;7.834;2023-03-01T10:10:15;31.02;;;15.95;;
2546;SDS011;1283;47.982;7.834;2023-03-01T10:12:46;33.20;;;15.95;;
2546;SDS011;1283;47.982;7.834;2023-03-01T10:15:14;32.10;;;16.33;;
2546;SDS011;1283;47.982;7.834;2023-03-01T10:17:41;31.27;;;16.25;;
2546;SDS011;1283;47.982;7.834;2023-03-01T10:20:15;35.38;;;16.45;;
2546;SDS011;1283;47.982;7.834;2023-03-01T10:22:46;33.05;;;16.85;;
2546;SDS011;1283;47.982;7.834;2023-03-01T10:25:15;33.55;;;16.60;;
2546;SDS011;1283;47.982;7.834;2023-03-01T10:27:45;38.47;;;16.70;;
2546;SDS011;1283;47.982;7.834;2023-03-01T10:30:30;36.35;;;16.05;;
2546;SDS011;1283;47.982;7.834;2023-03-01T10:33:00;40.63;;;18.17;;
2546;SDS011;1283;47.982;7.834;2023-03-01T10:35:27;31.08;;;16.25;;
2546;SDS011;1283;47.982;7.834;2023-03-01T10:38:01;33.78;;;16.55;;
2546;SDS011;1283;47.982;7.834;2023-03-01T10:40:30;35.53;;;16.60;;
2546;SDS011;1283;47.982;7.834;2023-03-01T10:42:57;33.30;;;16.63;;
2546;SDS011;1283;47.982;7.834;2023-03-01T10:45:32;34.22;;;16.20;;
2546;SDS011;1283;47.982;7.834;2023-03-01T10:48:04;34.03;;;16.23;;
2546;SDS011;1283;47.982;7.834;2023-03-01T10:50:34;31.67;;;15.90;;
2546;SDS011;1283;47.982;7.834;2023-03-01T10:53:04;38.33;;;18.02;;
2546;SDS011;1283;47.982;7.834;2023-03-01T10:55:31;38.38;;;16.73;;
2546;SDS011;1283;47.982;7.834;2023-03-01T10:58:07;29.23;;;15.98;;
2546;SDS011;1283;47.982;7.834;2023-03-01T11:00:45;31.23;;;16.65;;
2546;SDS011;1283;47.982;7.834;2023-03-01T11:03:14;29.95;;;15.90;;
2546;SDS011;1283;47.982;7.834;2023-03-01T11:05:50;33.03;;;16.58;;
2546;SDS011;1283;47.982;7.834;2023-03-01T11:08:33;38.17;;;15.73;;
2546;SDS011;1283;47.982;7.834;2023-03-01T11:11:18;39.03;;;16.95;;
2546;SDS011;1283;47.982;7.834;2023-03-01T11:13:49;34.93;;;17.03;;
2546;SDS011;1283;47.982;7.834;2023-03-01T11:16:22;33.95;;;16.58;;
2546;SDS011;1283;47.982;7.834;2023-03-01T11:18:55;34.05;;;17.30;;
2546;SDS011;1283;47.982;7.834;2023-03-01T11:21:23;40.47;;;16.50;;
2546;SDS011;1283;47.982;7.834;2023-03-01T11:23:51;34.38;;;17.60;;
2546;SDS011;1283;47.982;7.834;2023-03-01T11:26:18;37.00;;;17.50;;
2546;SDS011;1283;47.982;7.834;2023-03-01T11:28:46;30.77;;;15.57;;
2546;SDS011;1283;47.982;7.834;2023-03-01T11:31:16;33.95;;;16.05;;
2546;SDS011;1283;47.982;7.834;2023-03-01T11:33:45;32.55;;;16.30;;
2546;SDS011;1283;47.982;7.834;2023-03-01T11:36:15;29.65;;;16.17;;
2546;SDS011;1283;47.982;7.834;2023-03-01T11:38:55;30.85;;;15.70;;
2546;SDS011;1283;47.982;7.834;2023-03-01T11:41:23;32.25;;;16.67;;
2546;SDS011;1283;47.982;7.834;2023-03-01T11:43:53;38.00;;;17.15;;
2546;SDS011;1283;47.982;7.834;2023-03-01T11:49:23;34.88;;;16.05;;
2546;SDS011;1283;47.982;7.834;2023-03-01T11:52:03;34.72;;;17.00;;
2546;SDS011;1283;47.982;7.834;2023-03-01T11:54:41;34.90;;;16.40;;
2546;SDS011;1283;47.982;7.834;2023-03-01T11:57:15;30.27;;;15.73;;
2546;SDS011;1283;47.982;7.834;2023-03-01T11:59:58;32.22;;;16.77;;
2546;SDS011;1283;47.982;7.834;2023-03-01T12:05:50;30.95;;;15.32;;
2546;SDS011;1283;47.982;7.834;2023-03-01T12:08:23;32.33;;;16.02;;
2546;SDS011;1283;47.982;7.834;2023-03-01T12:10:57;36.00;;;16.50;;
2546;SDS011;1283;47.982;7.834;2023-03-01T12:13:43;31.33;;;15.63;;
2546;SDS011;1283;47.982;7.834;2023-03-01T12:16:40;33.58;;;16.13;;
2546;SDS011;1283;47.982;7.834;2023-03-01T12:19:22;34.53;;;16.02;;
2546;SDS011;1283;47.982;7.834;2023-03-01T12:22:04;31.95;;;15.73;;
2546;SDS011;1283;47.982;7.834;2023-03-01T12:24:48;33.75;;;15.57;;
2546;SDS011;1283;47.982;7.834;2023-03-01T12:27:26;31.55;;;15.45;;
2546;SDS011;1283;47.982;7.834;2023-03-01T12:30:03;30.65;;;16.10;;
2546;SDS011;1283;47.982;7.834;2023-03-01T12:32:43;29.23;;;15.10;;
2546;SDS011;1283;47.982;7.834;2023-03-01T12:35:18;27.92;;;15.20;;
2546;SDS011;1283;47.982;7.834;2023-03-01T12:37:54;29.42;;;14.82;;
2546;SDS011;1283;47.982;7.834;2023-03-01T12:40:33;30.42;;;14.57;;
2546;SDS011;1283;47.982;7.834;2023-03-01T12:43:14;30.70;;;14.95;;
2546;SDS011;1283;47.982;7.834;2023-03-01T12:45:48;35.47;;;14.20;;
2546;SDS011;1283;47.982;7.834;2023-03-01T12:48:24;34.72;;;14.52;;
2546;SDS011;1283;47.982;7.834;2023-03-01T12:50:59;29.55;;;15.02;;
2546;SDS011;1283;47.982;7.834;2023-03-01T12:53:28;27.60;;;14.13;;
2546;SDS011;1283;47.982;7.834;2023-03-01T12:55:56;27.38;;;14.15;;
2546;SDS011;1283;47.982;7.834;2023-03-01T12:58:28;24.63;;;12.85;;
2546;SDS011;1283;47.982;7.834;2023-03-01T13:01:02;30.38;;;12.38;;
2546;SDS011;1283;47.982;7.834;2023-03-01T13:03:34;24.58;;;12.70;;
2546;SDS011;1283;47.982;7.834;2023-03-01T13:06:21;22.88;;;12.10;;
2546;SDS011;1283;47.982;7.834;2023-03-01T13:08:54;22.35;;;11.60;;
2546;SDS011;1283;47.982;7.834;2023-03-01T13:11:25;26.63;;;12.48;;
2546;SDS011;1283;47.982;7.834;2023-03-01T13:13:53;24.63;;;11.90;;
2546;SDS011;1283;47.982;7.834;2023-03-01T13:16:59;24.77;;;11.85;;
2546;SDS011;1283;47.982;7.834;2023-03-01T13:19:26;28.85;;;13.70;;
2546;SDS011;1283;47.982;7.834;2023-03-01T13:21:54;27.80;;;11.32;;
2546;SDS011;1283;47.982;7.834;2023-03-01T13:24:24;27.63;;;13.02;;
2546;SDS011;1283;47.982;7.834;2023-03-01T13:29:50;25.15;;;11.30;;
2546;SDS011;1283;47.982;7.834;2023-03-01T13:32:23;24.73;;;12.02;;
2546;SDS011;1283;47.982;7.834;2023-03-01T13:34:54;26.00;;;12.23;;
2546;SDS011;1283;47.982;7.834;2023-03-01T13:37:23;23.00;;;12.32;;
2546;SDS011;1283;47.982;7.834;2023-03-01T13:39:54;26.30;;;12.48;;
2546;SDS011;1283;47.982;7.834;2023-03-01T13:42:36;25.27;;;12.48;;
2546;SDS011;1283;47.982;7.834;2023-03-01T13:45:12;23.02;;;12.63;;
2546;SDS011;1283;47.982;7.834;2023-03-01T13:47:43;24.33;;;12.13;;
2546;SDS011;1283;47.982;7.834;2023-03-01T13:50:16;24.77;;;12.48;;
2546;SDS011;1283;47.982;7.834;2023-03-01T13:52:47;19.08;;;10.55;;
2546;SDS011;1283;47.982;7.834;2023-03-01T13:55:16;21.48;;;11.55;;
2546;SDS011;1283;47.982;7.834;2023-03-01T13:57:46;23.20;;;12.23;;
2546;SDS011;1283;47.982;7.834;2023-03-01T14:00:26;25.58;;;12.27;;
2546;SDS011;1283;47.982;7.834;2023-03-01T14:03:05;23.50;;;11.93;;
2546;SDS011;1283;47.982;7.834;2023-03-01T14:05:35;21.63;;;11.93;;
2546;SDS011;1283;47.982;7.834;2023-03-01T14:08:02;23.10;;;12.57;;
2546;SDS011;1283;47.982;7.834;2023-03-01T14:10:31;28.73;;;12.73;;
2546;SDS011;1283;47.982;7.834;2023-03-01T14:13:02;21.02;;;12.25;;
2546;SDS011;1283;47.982;7.834;2023-03-01T14:15:41;23.88;;;12.20;;
2546;SDS011;1283;47.982;7.834;2023-03-01T14:18:12;24.42;;;12.27;;
2546;SDS011;1283;47.982;7.834;2023-03-01T14:20:43;24.92;;;13.10;;
2546;SDS011;1283;47.982;7.834;2023-03-01T14:23:17;24.52;;;12.15;;
2546;SDS011;1283;47.982;7.834;2023-03-01T14:25:48;24.33;;;12.02;;
2546;SDS011;1283;47.982;7.834;2023-03-01T14:28:16;24.67;;;12.85;;
2546;SDS011;1283;47.982;7.834;2023-03-01T14:30:44;23.02;;;12.35;;
2546;SDS011;1283;47.982;7.834;2023-03-01T14:33:20;23.35;;;12.63;;
2546;SDS011;1283;47.982;7.834;2023-03-01T14:38:20;26.80;;;11.93;;
2546;SDS011;1283;47.982;7.834;2023-03-01T14:40:46;24.58;;;12.85;;
2546;SDS011;1283;47.982;7.834;2023-03-01T14:43:17;22.05;;;11.43;;
2546;SDS011;1283;47.982;7.834;2023-03-01T14:45:46;25.80;;;12.48;;
2546;SDS011;1283;47.982;7.834;2023-03-01T14:48:14;23.50;;;12.77;;
2546;SDS011;1283;47.982;7.834;2023-03-01T14:50:42;25.63;;;13.18;;
2546;SDS011;1283;47.982;7.834;2023-03-01T14:53:14;23.30;;;12.82;;
2546;SDS011;1283;47.982;7.834;2023-03-01T14:55:44;29.02;;;13.88;;
2546;SDS011;1283;47.982;7.834;2023-03-01T14:58:12;22.92;;;11.88;;
2546;SDS011;1283;47.982;7.834;2023-03-01T15:00:43;28.23;;;12.70;;
2546;SDS011;1283;47.982;7.834;2023-03-01T15:03:14;24.83;;;12.57;;
2546;SDS011;1283;47.982;7.834;2023-03-01T15:05:46;23.27;;;12.80;;
2546;SDS011;1283;47.982;7.834;2023-03-01T15:08:16;26.30;;;13.50;;
2546;SDS011;1283;47.982;7.834;2023-03-01T15:10:55;22.50;;;12.63;;
2546;SDS011;1283;47.982;7.834;2023-03-01T15:13:23;26.02;;;12.75;;
2546;SDS011;1283;47.982;7.834;2023-03-01T15:15:51;22.98;;;12.63;;